Time;durP1;ratioP1;P1;durP2;ratioP2;P2;SDS_P1;SDS_P2;PMS_P1;PMS_P2;Temp;Humidity;BMP_temperature;BMP_pressure;BME280_temperature;BME280_humidity;BME280_pressure;Samples;Min_cycle;Max_cycle;Signal;HPM_P1;HPM_P2
2021/08/10 00:01:13;;;;;;;7.70;4.05;;;15.70;88.20;;;;;;5055498;28;20075;-37
2021/08/10 00:03:39;;;;;;;6.55;3.65;;;15.60;88.80;;;;;;5055290;28;20112;-37
2021/08/10 00:06:04;;;;;;;5.25;3.45;;;15.60;89.30;;;;;;5055153;28;20466;-36
2021/08/10 00:08:30;;;;;;;5.70;3.35;;;15.60;89.20;;;;;;5055003;28;20025;-36
2021/08/10 00:10:56;;;;;;;5.32;3.30;;;15.60;89.10;;;;;;5055256;28;20104;-36
2021/08/10 00:13:23;;;;;;;5.75;3.42;;;15.50;89.10;;;;;;5054998;28;20078;-35
2021/08/10 00:15:48;;;;;;;8.00;3.40;;;15.40;89.80;;;;;;5054522;28;20027;-36
2021/08/10 00:18:14;;;;;;;7.57;3.53;;;15.40;89.60;;;;;;5054951;28;20108;-37
2021/08/10 00:20:40;;;;;;;7.45;3.10;;;15.40;89.70;;;;;;5053770;28;20338;-37
2021/08/10 00:23:06;;;;;;;4.88;3.15;;;15.50;89.40;;;;;;5054692;28;20070;-37
2021/08/10 00:25:32;;;;;;;9.55;3.92;;;15.50;89.50;;;;;;5054882;28;20135;-37
2021/08/10 00:27:59;;;;;;;6.80;3.30;;;15.50;89.20;;;;;;5054902;28;20139;-37
2021/08/10 00:30:24;;;;;;;8.70;3.60;;;15.40;88.90;;;;;;5054748;28;20477;-37
2021/08/10 00:32:50;;;;;;;8.65;3.67;;;15.40;89.70;;;;;;5054385;28;20079;-38
2021/08/10 00:35:16;;;;;;;11.05;3.28;;;15.40;89.30;;;;;;5054489;28;20040;-42
2021/08/10 00:37:42;;;;;;;8.10;3.08;;;15.40;89.20;;;;;;5054758;28;20029;-38
2021/08/10 00:40:08;;;;;;;9.75;3.15;;;15.40;89.30;;;;;;5054552;28;20115;-38
2021/08/10 00:42:34;;;;;;;9.05;3.78;;;15.40;89.20;;;;;;5054209;28;20075;-38
2021/08/10 00:45:00;;;;;;;5.45;3.58;;;15.40;89.10;;;;;;5054309;28;20029;-38
2021/08/10 00:47:25;;;;;;;5.47;3.50;;;15.30;89.50;;;;;;5054278;28;20025;-37
2021/08/10 00:49:51;;;;;;;11.40;3.65;;;15.30;89.60;;;;;;5054275;28;20053;-38
2021/08/10 00:52:17;;;;;;;11.18;4.25;;;15.30;89.30;;;;;;5052894;28;20076;-38
2021/08/10 00:54:42;;;;;;;7.15;3.63;;;15.30;89.60;;;;;;5053530;28;20043;-38
2021/08/10 00:57:08;;;;;;;3.65;2.92;;;15.30;89.50;;;;;;5053914;28;20428;-38
2021/08/10 00:59:34;;;;;;;7.30;2.78;;;15.30;89.10;;;;;;5053893;28;20373;-37
2021/08/10 01:02:01;;;;;;;6.97;4.20;;;15.40;89.20;;;;;;5053799;28;20525;-37
2021/08/10 01:04:26;;;;;;;9.35;4.22;;;15.30;89.20;;;;;;5053685;28;20116;-38
2021/08/10 01:07:04;;;;;;;4.72;3.35;;;15.30;89.70;;;;;;5053673;28;20067;-37
2021/08/10 01:09:42;;;;;;;8.85;4.15;;;15.30;89.90;;;;;;5053650;28;20024;-37
2021/08/10 01:12:18;;;;;;;7.88;4.68;;;15.40;89.60;;;;;;5053820;28;20112;-37
2021/08/10 01:15:11;;;;;;;9.73;3.83;;;15.30;89.50;;;;;;5053783;28;20105;-37
2021/08/10 01:17:57;;;;;;;10.55;3.38;;;15.30;89.50;;;;;;5053168;28;20029;-37
2021/08/10 01:20:55;;;;;;;6.97;3.17;;;15.30;89.40;;;;;;5053603;28;20036;-36
2021/08/10 01:23:25;;;;;;;9.10;3.75;;;15.30;89.70;;;;;;5052284;28;20033;-36
2021/08/10 01:26:15;;;;;;;7.40;3.40;;;15.30;89.60;;;;;;5054078;28;20096;-36
2021/08/10 01:29:03;;;;;;;5.68;3.10;;;15.30;89.80;;;;;;5053505;28;20056;-36
2021/08/10 01:31:36;;;;;;;6.95;3.40;;;15.30;89.70;;;;;;5053031;28;20070;-38
2021/08/10 01:34:17;;;;;;;9.73;4.60;;;15.20;89.80;;;;;;5053710;28;20025;-38
2021/08/10 01:36:45;;;;;;;5.28;3.20;;;15.30;89.90;;;;;;5053888;28;20373;-38
2021/08/10 01:39:12;;;;;;;7.05;3.78;;;15.20;90.20;;;;;;5053324;28;20498;-38
2021/08/10 01:41:39;;;;;;;5.50;3.10;;;15.20;90.10;;;;;;5053296;28;20032;-38
2021/08/10 01:44:08;;;;;;;6.90;4.07;;;15.10;90.30;;;;;;5053460;28;20354;-37
2021/08/10 01:46:34;;;;;;;8.35;3.70;;;15.10;90.50;;;;;;5053240;28;20021;-38
2021/08/10 01:49:00;;;;;;;11.10;4.15;;;15.20;90.00;;;;;;5053230;28;20025;-38
2021/08/10 01:51:28;;;;;;;5.85;3.70;;;15.10;90.00;;;;;;5051929;28;20083;-38
2021/08/10 01:53:58;;;;;;;9.40;3.50;;;15.20;90.00;;;;;;5053191;28;20112;-38
2021/08/10 01:56:24;;;;;;;;;;;15.10;90.40;;;;;;5053945;28;20071;-38
2021/08/10 01:58:52;;;;;;;9.38;4.18;;;15.10;90.40;;;;;;5053092;28;20307;-38
2021/08/10 02:01:18;;;;;;;9.02;3.78;;;15.00;90.40;;;;;;5053121;28;20029;-38
2021/08/10 02:03:45;;;;;;;8.77;4.60;;;14.90;90.30;;;;;;5053163;28;20039;-37
2021/08/10 02:06:15;;;;;;;9.50;3.85;;;15.10;90.20;;;;;;5053219;28;20048;-38
2021/08/10 02:08:41;;;;;;;7.50;3.83;;;15.10;90.10;;;;;;5053222;28;20079;-38
2021/08/10 02:11:09;;;;;;;7.72;3.60;;;15.10;90.00;;;;;;5053230;28;20309;-38
2021/08/10 02:13:34;;;;;;;7.50;4.55;;;15.10;89.90;;;;;;5052748;28;20120;-38
2021/08/10 02:16:01;;;;;;;5.38;3.30;;;15.10;89.90;;;;;;5053134;28;20045;-43
2021/08/10 02:18:27;;;;;;;6.60;3.38;;;15.10;90.10;;;;;;5052788;28;20420;-38
2021/08/10 02:20:57;;;;;;;11.02;3.72;;;15.10;89.80;;;;;;5053048;28;20454;-37
2021/08/10 02:23:25;;;;;;;5.28;3.50;;;15.10;89.60;;;;;;5052755;28;20017;-37
2021/08/10 02:25:52;;;;;;;6.03;3.22;;;15.10;89.80;;;;;;5051406;28;20079;-36
2021/08/10 02:28:19;;;;;;;4.85;3.53;;;15.00;90.00;;;;;;5053029;28;20029;-37
2021/08/10 02:30:49;;;;;;;5.22;3.58;;;15.10;90.10;;;;;;5052782;28;20049;-37
2021/08/10 02:33:17;;;;;;;6.70;3.08;;;15.10;89.60;;;;;;5052650;28;20096;-36
2021/08/10 02:35:46;;;;;;;5.55;3.08;;;15.10;89.90;;;;;;5052991;28;20451;-36
2021/08/10 02:38:16;;;;;;;3.88;2.65;;;15.20;89.60;;;;;;5052652;28;20033;-36
2021/08/10 02:40:47;;;;;;;5.32;3.58;;;15.30;89.20;;;;;;5052690;28;20439;-36
2021/08/10 02:43:14;;;;;;;8.43;3.03;;;15.40;88.90;;;;;;5052988;28;20099;-37
2021/08/10 02:45:39;;;;;;;4.40;2.95;;;15.40;88.70;;;;;;5052553;28;20107;-37
2021/08/10 02:48:05;;;;;;;6.70;2.85;;;15.30;88.90;;;;;;5051427;28;20021;-37
2021/08/10 02:50:32;;;;;;;4.70;2.65;;;15.50;88.70;;;;;;5052553;28;20026;-37
2021/08/10 02:52:58;;;;;;;7.32;3.50;;;15.40;88.60;;;;;;5052596;28;20112;-36
2021/08/10 02:55:26;;;;;;;3.70;2.90;;;15.50;88.60;;;;;;5052716;28;20423;-37
2021/08/10 02:58:09;;;;;;;8.45;3.28;;;15.40;88.20;;;;;;5052446;28;20113;-36
2021/08/10 03:00:41;;;;;;;6.50;3.63;;;15.30;89.00;;;;;;5051651;28;20112;-36
2021/08/10 03:03:10;;;;;;;8.60;3.50;;;15.50;88.90;;;;;;5052613;28;20108;-36
2021/08/10 03:05:37;;;;;;;6.10;3.17;;;15.30;89.20;;;;;;5052588;28;20504;-36
2021/08/10 03:08:06;;;;;;;6.53;3.30;;;15.40;89.10;;;;;;5050993;28;20067;-36
2021/08/10 03:10:33;;;;;;;6.80;2.80;;;15.50;88.40;;;;;;5052491;28;20066;-37
2021/08/10 03:13:05;;;;;;;4.65;2.47;;;15.50;88.70;;;;;;5052202;28;20021;-37
2021/08/10 03:15:35;;;;;;;7.65;3.10;;;15.50;88.60;;;;;;5052372;28;20037;-36
2021/08/10 03:18:05;;;;;;;4.18;3.00;;;15.50;88.30;;;;;;5051338;28;20025;-37
2021/08/10 03:20:33;;;;;;;7.63;3.37;;;15.50;88.80;;;;;;5056076;28;20137;-37
2021/08/10 03:23:00;;;;;;;8.80;3.65;;;15.60;88.50;;;;;;5056044;28;20029;-36
2021/08/10 03:25:27;;;;;;;8.45;3.17;;;15.50;88.60;;;;;;5056082;28;20037;-36
2021/08/10 03:27:54;;;;;;;11.40;3.67;;;15.50;89.00;;;;;;5055716;28;20033;-37
2021/08/10 03:30:21;;;;;;;4.20;3.00;;;15.50;88.80;;;;;;5055703;28;20032;-36
2021/08/10 03:32:49;;;;;;;8.35;3.95;;;15.50;88.70;;;;;;5054299;28;20053;-37
2021/08/10 03:35:15;;;;;;;8.55;3.15;;;15.60;88.60;;;;;;5055479;28;20071;-37
2021/08/10 03:37:41;;;;;;;6.55;3.58;;;15.60;88.60;;;;;;5055596;28;20025;-37
2021/08/10 03:40:08;;;;;;;5.50;3.90;;;15.60;88.40;;;;;;5055737;28;20029;-36
2021/08/10 03:42:34;;;;;;;9.00;3.65;;;15.60;88.70;;;;;;5055557;28;20029;-37
2021/08/10 03:45:00;;;;;;;5.60;3.22;;;15.60;88.40;;;;;;5055712;28;20363;-36
2021/08/10 03:47:26;;;;;;;7.72;3.72;;;15.50;88.70;;;;;;5055476;28;20032;-36
2021/08/10 03:49:54;;;;;;;6.63;2.90;;;15.60;88.40;;;;;;5055609;28;20028;-36
2021/08/10 03:52:20;;;;;;;5.82;3.30;;;15.70;88.30;;;;;;5055455;28;20203;-36
2021/08/10 03:54:46;;;;;;;11.07;3.58;;;15.60;88.70;;;;;;5055532;28;20495;-37
2021/08/10 03:57:17;;;;;;;6.93;3.38;;;15.70;88.90;;;;;;5055103;28;20103;-37
2021/08/10 03:59:46;;;;;;;9.02;3.35;;;15.70;88.50;;;;;;5053832;28;20495;-36
2021/08/10 04:02:15;;;;;;;7.18;2.80;;;15.60;88.90;;;;;;5055043;28;20028;-37
2021/08/10 04:04:43;;;;;;;8.10;3.60;;;15.60;89.20;;;;;;5055332;28;20029;-37
2021/08/10 04:07:09;;;;;;;7.75;4.03;;;15.50;89.10;;;;;;5055177;28;20068;-36
2021/08/10 04:09:37;;;;;;;8.98;4.68;;;15.50;89.50;;;;;;5054859;28;20497;-36
2021/08/10 04:12:08;;;;;;;8.25;4.28;;;15.40;90.10;;;;;;5054814;28;20130;-36
2021/08/10 04:14:34;;;;;;;12.15;5.55;;;15.30;90.00;;;;;;5055021;28;20040;-36
2021/08/10 04:17:05;;;;;;;10.50;4.57;;;15.40;90.20;;;;;;5053201;28;20021;-36
2021/08/10 04:19:45;;;;;;;7.30;4.25;;;15.30;90.30;;;;;;5054499;28;20063;-36
2021/08/10 04:22:11;;;;;;;16.52;5.45;;;15.20;90.50;;;;;;5054543;28;20464;-36
2021/08/10 04:24:36;;;;;;;9.65;5.45;;;15.20;90.40;;;;;;5053242;28;20037;-36
2021/08/10 04:27:02;;;;;;;11.55;5.30;;;15.30;89.90;;;;;;5054910;28;20025;-37
2021/08/10 04:29:28;;;;;;;7.55;4.45;;;15.20;90.30;;;;;;5053920;28;20021;-37
2021/08/10 04:31:53;;;;;;;10.13;5.65;;;15.10;90.20;;;;;;5054259;28;20045;-37
2021/08/10 04:34:19;;;;;;;8.35;5.18;;;15.10;90.50;;;;;;5054632;28;20079;-37
2021/08/10 04:36:45;;;;;;;10.63;5.25;;;15.00;90.60;;;;;;5054519;28;20046;-38
2021/08/10 04:39:10;;;;;;;11.98;5.10;;;15.00;91.10;;;;;;5054422;28;20025;-38
2021/08/10 04:41:36;;;;;;;8.25;4.95;;;14.90;91.00;;;;;;5054413;28;20077;-37
2021/08/10 04:44:02;;;;;;;12.75;5.95;;;14.80;90.90;;;;;;5054541;28;20108;-37
2021/08/10 04:46:27;;;;;;;8.85;4.78;;;14.90;90.70;;;;;;5054238;28;20379;-37
2021/08/10 04:48:54;;;;;;;10.75;5.13;;;15.00;90.80;;;;;;5054200;28;20103;-37
2021/08/10 04:51:20;;;;;;;8.90;5.05;;;15.00;90.50;;;;;;5054310;28;20021;-37
2021/08/10 04:53:46;;;;;;;9.73;6.13;;;15.00;90.40;;;;;;5054407;28;20028;-38
2021/08/10 04:56:12;;;;;;;9.70;5.38;;;14.90;90.60;;;;;;5054276;28;20028;-37
2021/08/10 04:58:38;;;;;;;10.27;5.63;;;14.90;90.70;;;;;;5054181;28;20025;-37
2021/08/10 05:01:04;;;;;;;11.15;5.50;;;14.90;90.40;;;;;;5054105;28;20444;-37
2021/08/10 05:03:30;;;;;;;9.82;5.93;;;14.80;90.60;;;;;;5054244;28;20025;-37
2021/08/10 05:05:57;;;;;;;11.98;4.80;;;14.70;90.70;;;;;;5053965;28;20060;-37
2021/08/10 05:08:22;;;;;;;10.95;5.57;;;14.80;91.10;;;;;;5053867;28;20025;-37
2021/08/10 05:10:48;;;;;;;11.98;5.32;;;14.70;90.80;;;;;;5054094;28;20021;-37
2021/08/10 05:13:14;;;;;;;10.85;4.97;;;14.60;91.20;;;;;;5053804;28;20350;-37
2021/08/10 05:15:40;;;;;;;12.82;5.90;;;14.60;91.20;;;;;;5053775;28;20075;-36
2021/08/10 05:18:06;;;;;;;9.63;5.45;;;14.60;91.20;;;;;;5053630;28;20032;-37
2021/08/10 05:20:31;;;;;;;10.73;5.95;;;14.60;90.80;;;;;;5053506;28;20136;-37
2021/08/10 05:22:57;;;;;;;13.43;6.07;;;14.60;90.40;;;;;;5054295;28;20526;-36
2021/08/10 05:25:23;;;;;;;13.30;6.15;;;14.70;90.50;;;;;;5053396;28;20021;-36
2021/08/10 05:27:48;;;;;;;11.85;5.65;;;14.80;90.20;;;;;;5053535;28;20070;-36
2021/08/10 05:30:15;;;;;;;14.25;7.53;;;14.80;90.30;;;;;;5053586;28;20017;-37
2021/08/10 05:32:41;;;;;;;10.50;7.03;;;15.00;89.80;;;;;;5053151;28;20433;-37
2021/08/10 05:35:07;;;;;;;13.45;6.75;;;15.10;89.10;;;;;;5053407;28;20056;-37
2021/08/10 05:37:33;;;;;;;11.45;6.03;;;15.20;88.50;;;;;;5053249;28;20021;-37
2021/08/10 05:39:59;;;;;;;10.65;6.13;;;15.20;88.60;;;;;;5053171;28;20112;-37
2021/08/10 05:42:24;;;;;;;10.32;6.15;;;15.20;88.70;;;;;;5053084;28;20381;-37
2021/08/10 05:44:50;;;;;;;15.02;6.55;;;15.10;88.20;;;;;;5052970;28;20423;-37
2021/08/10 05:47:16;;;;;;;10.20;5.57;;;15.10;88.50;;;;;;5052824;28;20029;-36
2021/08/10 05:49:41;;;;;;;9.20;5.93;;;15.00;88.20;;;;;;5052830;28;20079;-37
2021/08/10 05:52:08;;;;;;;8.55;4.75;;;14.90;89.30;;;;;;5052786;28;20024;-37
2021/08/10 05:54:35;;;;;;;10.18;5.78;;;15.00;89.30;;;;;;5053425;28;20024;-47
2021/08/10 05:57:01;;;;;;;9.05;5.15;;;15.00;89.10;;;;;;5052921;28;20029;-48
2021/08/10 05:59:26;;;;;;;11.55;5.20;;;15.20;88.20;;;;;;5051260;28;20082;-51
2021/08/10 06:01:52;;;;;;;8.73;5.13;;;15.20;88.10;;;;;;5052891;28;20503;-51
2021/08/10 06:04:18;;;;;;;11.48;5.53;;;15.20;88.10;;;;;;5052794;28;20032;-48
2021/08/10 06:06:44;;;;;;;7.15;4.30;;;15.30;88.20;;;;;;5052941;28;20376;-49
2021/08/10 06:09:09;;;;;;;7.53;5.18;;;15.30;88.00;;;;;;5053007;28;20116;-48
2021/08/10 06:11:35;;;;;;;9.25;5.13;;;15.30;88.30;;;;;;5053467;28;20338;-48
2021/08/10 06:14:03;;;;;;;6.63;4.50;;;15.30;88.20;;;;;;5052955;28;20096;-48
2021/08/10 06:16:29;;;;;;;10.57;5.10;;;15.40;88.20;;;;;;5053127;28;20051;-48
2021/08/10 06:18:54;;;;;;;9.18;5.25;;;15.60;87.70;;;;;;5053321;28;20077;-51
2021/08/10 06:21:20;;;;;;;8.18;4.40;;;15.80;87.00;;;;;;5052448;28;20502;-48
2021/08/10 06:23:46;;;;;;;7.25;4.57;;;16.00;86.60;;;;;;5052694;28;20479;-47
2021/08/10 06:26:12;;;;;;;8.35;4.57;;;16.10;86.50;;;;;;5051237;28;20022;-50
2021/08/10 06:28:37;;;;;;;10.30;6.43;;;16.10;85.70;;;;;;5052810;28;20029;-49
2021/08/10 06:31:04;;;;;;;9.82;5.63;;;15.90;86.50;;;;;;5052642;28;20570;-49
2021/08/10 06:33:30;;;;;;;9.68;5.93;;;15.90;86.10;;;;;;5052403;28;20040;-48
2021/08/10 06:35:56;;;;;;;9.05;4.95;;;16.10;85.50;;;;;;5050794;28;20039;-49
2021/08/10 06:38:21;;;;;;;9.05;4.53;;;16.10;85.70;;;;;;5052374;28;20033;-47
2021/08/10 06:40:47;;;;;;;7.75;5.07;;;16.10;85.80;;;;;;5052241;28;20397;-49
2021/08/10 06:43:13;;;;;;;9.65;4.50;;;16.30;85.60;;;;;;5052308;28;20029;-47
2021/08/10 06:45:40;;;;;;;10.07;4.38;;;16.30;85.20;;;;;;5052212;28;20026;-49
2021/08/10 06:48:06;;;;;;;7.15;4.43;;;16.40;85.10;;;;;;5052195;28;20197;-51
2021/08/10 06:50:32;;;;;;;9.77;4.15;;;16.80;83.00;;;;;;5052100;28;20067;-48
2021/08/10 06:52:57;;;;;;;8.23;4.72;;;17.10;81.90;;;;;;5052400;28;20023;-52
2021/08/10 06:55:23;;;;;;;9.77;4.70;;;17.30;81.80;;;;;;5056182;28;20043;-48
2021/08/10 06:57:49;;;;;;;6.75;4.35;;;17.70;81.10;;;;;;5056073;28;20424;-47
2021/08/10 07:00:14;;;;;;;7.93;3.80;;;18.00;79.70;;;;;;5056189;28;20109;-48
2021/08/10 07:02:40;;;;;;;6.57;3.97;;;17.80;79.30;;;;;;5055922;28;20135;-49
2021/08/10 07:05:06;;;;;;;7.38;3.75;;;17.50;80.70;;;;;;5055811;28;20112;-48
2021/08/10 07:07:32;;;;;;;6.00;4.15;;;17.30;80.80;;;;;;5055794;28;20416;-47
2021/08/10 07:09:59;;;;;;;7.20;3.58;;;17.50;81.50;;;;;;5056083;28;20021;-50
2021/08/10 07:12:24;;;;;;;6.97;4.22;;;17.90;80.10;;;;;;5056622;28;20122;-51
2021/08/10 07:14:50;;;;;;;7.78;3.88;;;18.10;79.10;;;;;;5054922;28;20025;-51
2021/08/10 07:17:16;;;;;;;4.28;3.28;;;18.00;78.30;;;;;;5054685;28;20067;-47
2021/08/10 07:19:41;;;;;;;4.72;3.10;;;17.80;79.40;;;;;;5055816;28;20145;-48
2021/08/10 07:22:07;;;;;;;6.20;3.95;;;17.60;79.30;;;;;;5055929;28;20035;-48
2021/08/10 07:24:33;;;;;;;7.90;5.28;;;17.70;80.80;;;;;;5055421;28;20499;-50
2021/08/10 07:26:59;;;;;;;6.70;4.20;;;18.00;79.80;;;;;;5055713;28;20025;-47
2021/08/10 07:29:24;;;;;;;3.65;2.75;;;18.60;78.30;;;;;;5056012;28;20497;-48
2021/08/10 07:31:50;;;;;;;5.90;3.38;;;18.40;77.40;;;;;;5055233;28;20045;-47
2021/08/10 07:34:16;;;;;;;12.23;4.32;;;18.50;77.90;;;;;;5055401;28;20118;-50
2021/08/10 07:36:41;;;;;;;9.30;3.95;;;18.60;76.80;;;;;;5055394;28;20048;-50
2021/08/10 07:39:07;;;;;;;5.80;2.95;;;18.60;76.40;;;;;;5055298;28;20059;-52
2021/08/10 07:41:33;;;;;;;5.25;3.20;;;18.30;76.80;;;;;;5055442;28;20056;-56
2021/08/10 07:43:59;;;;;;;5.53;3.13;;;18.50;76.00;;;;;;5057008;28;20387;-50
2021/08/10 07:46:24;;;;;;;6.68;3.58;;;18.20;77.10;;;;;;5056884;28;20524;-50
2021/08/10 07:48:50;;;;;;;5.85;3.13;;;18.30;77.00;;;;;;5056515;28;20024;-52
2021/08/10 07:51:17;;;;;;;5.43;3.38;;;18.80;75.90;;;;;;5055434;28;20489;-49
2021/08/10 07:53:43;;;;;;;9.68;3.63;;;18.20;77.30;;;;;;5054593;28;20029;-49
2021/08/10 07:56:11;;;;;;;4.78;3.33;;;18.30;78.00;;;;;;5054512;28;20027;-48
2021/08/10 07:58:36;;;;;;;6.85;3.90;;;18.40;78.50;;;;;;5054965;28;20029;-49
2021/08/10 08:01:04;;;;;;;7.82;3.75;;;18.80;77.10;;;;;;5053658;28;20103;-51
2021/08/10 08:03:30;;;;;;;7.13;3.50;;;19.10;75.80;;;;;;5054459;28;20025;-49
2021/08/10 08:05:56;;;;;;;7.97;3.67;;;19.40;74.40;;;;;;5054496;28;20457;-48
2021/08/10 08:08:22;;;;;;;10.10;4.05;;;19.30;74.20;;;;;;5054435;28;20074;-50
2021/08/10 08:10:48;;;;;;;4.70;3.60;;;19.00;74.10;;;;;;5054969;28;20362;-50
2021/08/10 08:13:13;;;;;;;8.73;3.42;;;19.00;75.20;;;;;;5054269;28;20151;-51
2021/08/10 08:15:39;;;;;;;7.15;4.18;;;19.10;74.60;;;;;;5053944;28;20460;-47
2021/08/10 08:18:05;;;;;;;11.05;4.13;;;19.30;74.00;;;;;;5054687;28;20029;-49
2021/08/10 08:20:31;;;;;;;5.35;3.85;;;19.00;74.20;;;;;;5053413;28;20112;-48
2021/08/10 08:22:56;;;;;;;7.35;4.13;;;19.50;72.30;;;;;;5054096;28;20030;-48
2021/08/10 08:25:22;;;;;;;8.65;4.53;;;19.70;71.60;;;;;;5053893;28;20028;-48
2021/08/10 08:27:48;;;;;;;5.78;3.35;;;20.10;70.10;;;;;;5054580;28;20028;-49
2021/08/10 08:30:14;;;;;;;8.45;3.60;;;19.80;70.60;;;;;;5054839;28;20464;-51
2021/08/10 08:32:40;;;;;;;7.60;3.72;;;19.60;71.80;;;;;;5053958;28;20048;-52
2021/08/10 08:35:05;;;;;;;7.70;3.63;;;19.50;71.10;;;;;;5054143;28;20484;-50
2021/08/10 08:37:32;;;;;;;6.30;3.80;;;19.80;71.00;;;;;;5054080;28;20021;-48
2021/08/10 08:39:58;;;;;;;8.32;3.63;;;19.40;71.60;;;;;;5053894;28;20099;-48
2021/08/10 08:42:23;;;;;;;7.78;4.35;;;19.50;71.60;;;;;;5054084;28;20025;-50
2021/08/10 08:44:49;;;;;;;8.13;4.00;;;19.60;71.10;;;;;;5054506;28;20025;-47
2021/08/10 08:47:21;;;;;;;9.35;4.00;;;19.60;71.30;;;;;;5053658;28;20024;-47
2021/08/10 08:49:48;;;;;;;7.43;3.88;;;19.50;71.00;;;;;;5053586;28;20056;-47
2021/08/10 08:52:17;;;;;;;5.88;3.50;;;19.50;71.50;;;;;;5053726;28;20037;-48
2021/08/10 08:54:43;;;;;;;7.72;3.70;;;19.40;71.80;;;;;;5053546;28;20025;-46
2021/08/10 08:57:09;;;;;;;11.55;4.05;;;19.20;72.70;;;;;;5053322;28;20044;-48
2021/08/10 08:59:35;;;;;;;5.55;3.80;;;19.40;71.80;;;;;;5053468;28;20499;-50
2021/08/10 09:02:01;;;;;;;8.48;4.38;;;19.50;71.80;;;;;;5053483;28;20025;-50
2021/08/10 09:04:27;;;;;;;5.47;3.60;;;19.80;69.70;;;;;;5052260;28;20102;-52
2021/08/10 09:06:54;;;;;;;9.07;4.28;;;19.70;69.20;;;;;;5053572;28;20025;-49
2021/08/10 09:09:28;;;;;;;6.78;3.50;;;20.30;67.70;;;;;;5054147;28;20017;-49
2021/08/10 09:11:57;;;;;;;7.85;3.33;;;21.00;66.40;;;;;;5052668;28;20201;-49
2021/08/10 09:14:24;;;;;;;6.57;3.45;;;22.00;63.10;;;;;;5054654;28;20032;-47
2021/08/10 09:17:12;;;;;;;5.80;3.53;;;22.60;60.90;;;;;;5053291;28;20029;-49
2021/08/10 09:19:46;;;;;;;7.07;4.00;;;22.80;60.40;;;;;;5052996;28;20361;-47
2021/08/10 09:22:23;;;;;;;4.95;3.13;;;22.30;60.40;;;;;;5053357;28;20036;-50
2021/08/10 09:25:02;;;;;;;4.18;2.97;;;21.90;61.70;;;;;;5052824;28;20061;-49
2021/08/10 09:27:39;;;;;;;6.05;3.15;;;21.50;63.10;;;;;;5052918;28;20465;-50
2021/08/10 09:30:08;;;;;;;6.30;4.05;;;20.90;64.80;;;;;;5052897;28;20021;-52
2021/08/10 09:32:52;;;;;;;6.30;2.97;;;20.60;65.70;;;;;;5052589;28;20409;-49
2021/08/10 09:35:23;;;;;;;9.02;4.43;;;20.30;67.30;;;;;;5052603;28;20033;-47
2021/08/10 09:38:13;;;;;;;7.28;4.55;;;20.00;68.50;;;;;;5052701;28;20102;-49
2021/08/10 09:40:41;;;;;;;8.10;4.60;;;19.80;69.20;;;;;;5052799;28;20106;-50
2021/08/10 09:43:30;;;;;;;7.78;4.38;;;19.80;69.30;;;;;;5052998;28;20052;-50
2021/08/10 09:46:17;;;;;;;8.77;4.53;;;20.40;67.40;;;;;;5053098;28;20060;-51
2021/08/10 09:48:55;;;;;;;6.60;3.88;;;20.70;66.80;;;;;;5052596;28;20036;-48
2021/08/10 09:51:28;;;;;;;6.35;4.28;;;20.80;66.50;;;;;;5052288;28;20043;-48
2021/08/10 09:53:59;;;;;;;7.03;4.22;;;20.50;67.50;;;;;;5052699;28;20349;-48
2021/08/10 09:56:50;;;;;;;11.43;4.82;;;20.30;67.70;;;;;;5052285;28;20572;-48
2021/08/10 09:59:23;;;;;;;9.02;4.60;;;20.60;67.80;;;;;;5052597;28;20521;-47
2021/08/10 10:01:56;;;;;;;9.10;5.03;;;21.20;66.20;;;;;;5052342;28;20017;-49
2021/08/10 10:04:31;;;;;;;9.05;5.43;;;21.80;64.50;;;;;;5052225;28;20135;-50
2021/08/10 10:07:07;;;;;;;13.45;6.15;;;22.30;61.70;;;;;;5052056;28;20048;-48
2021/08/10 10:09:34;;;;;;;8.15;5.90;;;21.50;63.60;;;;;;5052784;28;20137;-46
2021/08/10 10:12:01;;;;;;;7.25;6.28;;;21.10;65.30;;;;;;5052752;28;20021;-49
2021/08/10 10:14:28;;;;;;;6.97;5.18;;;21.50;65.00;;;;;;5052546;28;20171;-48
2021/08/10 10:16:55;;;;;;;7.93;5.20;;;21.50;64.80;;;;;;5052640;28;20029;-47
2021/08/10 10:19:22;;;;;;;7.88;5.25;;;21.30;64.60;;;;;;5051061;28;20029;-48
2021/08/10 10:21:59;;;;;;;9.50;5.50;;;21.20;65.10;;;;;;5050878;28;20021;-51
2021/08/10 10:24:26;;;;;;;13.90;6.50;;;21.40;65.40;;;;;;5050875;28;20064;-50
2021/08/10 10:26:59;;;;;;;10.52;5.38;;;21.70;63.90;;;;;;5051967;28;20036;-47
2021/08/10 10:29:26;;;;;;;5.85;3.80;;;22.40;60.40;;;;;;5054792;28;20017;-48
2021/08/10 10:31:52;;;;;;;6.10;4.13;;;22.90;58.50;;;;;;5054670;28;20041;-48
2021/08/10 10:34:19;;;;;;;6.93;4.63;;;22.60;58.10;;;;;;5055831;28;20048;-50
2021/08/10 10:36:46;;;;;;;8.98;5.38;;;22.40;59.80;;;;;;5056126;28;20386;-48
2021/08/10 10:39:19;;;;;;;5.47;4.53;;;22.20;62.00;;;;;;5056117;28;20029;-48
2021/08/10 10:41:46;;;;;;;6.13;4.97;;;21.90;61.80;;;;;;5056271;28;20029;-47
2021/08/10 10:44:11;;;;;;;6.60;4.85;;;21.90;62.00;;;;;;5054525;28;20413;-50
2021/08/10 10:46:39;;;;;;;7.80;4.63;;;22.40;60.60;;;;;;5054657;28;20064;-50
2021/08/10 10:49:06;;;;;;;5.55;3.75;;;22.90;58.30;;;;;;5054728;28;20440;-49
2021/08/10 10:51:39;;;;;;;5.68;4.55;;;22.50;60.20;;;;;;5056109;28;20027;-49
2021/08/10 10:54:22;;;;;;;10.98;5.28;;;22.60;59.10;;;;;;5056067;28;20366;-49
2021/08/10 10:56:49;;;;;;;11.52;3.80;;;22.10;61.30;;;;;;5054604;28;20025;-48
2021/08/10 10:59:35;;;;;;;5.85;3.40;;;21.90;60.60;;;;;;5054656;28;20029;-48
2021/08/10 11:02:18;;;;;;;4.72;3.70;;;22.00;60.90;;;;;;5054381;28;20421;-49
2021/08/10 11:05:05;;;;;;;7.03;5.03;;;22.00;60.30;;;;;;5055502;28;20025;-48
2021/08/10 11:07:44;;;;;;;5.68;3.83;;;21.50;60.20;;;;;;5055452;28;20025;-49
2021/08/10 11:10:44;;;;;;;5.97;4.10;;;21.30;61.80;;;;;;5055159;28;20550;-47
2021/08/10 11:13:33;;;;;;;8.07;3.83;;;22.00;59.10;;;;;;5055705;28;20072;-50
2021/08/10 11:15:58;;;;;;;5.45;3.95;;;22.20;58.90;;;;;;5055758;28;20033;-48
2021/08/10 11:18:26;;;;;;;7.25;4.30;;;21.50;61.60;;;;;;5054796;28;20025;-51
2021/08/10 11:20:58;;;;;;;5.38;3.60;;;22.00;59.80;;;;;;5055445;28;20481;-53
2021/08/10 11:23:24;;;;;;;7.32;5.00;;;22.30;58.20;;;;;;5055709;28;20029;-51
2021/08/10 11:25:52;;;;;;;4.18;3.25;;;22.70;57.60;;;;;;5054838;28;20373;-49
2021/08/10 11:28:37;;;;;;;7.35;3.72;;;23.80;53.60;;;;;;5053989;28;20028;-48
2021/08/10 11:31:08;;;;;;;5.05;3.42;;;24.30;53.00;;;;;;5054090;28;20059;-48
2021/08/10 11:33:34;;;;;;;6.70;3.90;;;24.50;51.40;;;;;;5037899;28;20049;-49
2021/08/10 11:36:09;;;;;;;4.30;3.25;;;24.40;51.20;;;;;;5056147;28;20056;-49
2021/08/10 11:38:44;;;;;;;5.72;3.90;;;24.30;49.70;;;;;;5056646;28;20059;-47
2021/08/10 11:41:20;;;;;;;6.22;3.88;;;24.10;50.30;;;;;;5055880;28;20029;-51
2021/08/10 11:43:48;;;;;;;8.57;3.78;;;24.90;48.40;;;;;;5055381;28;20071;-49
2021/08/10 11:46:22;;;;;;;7.07;3.92;;;24.80;49.60;;;;;;5053733;28;20036;-48
2021/08/10 11:49:02;;;;;;;9.05;5.03;;;23.80;51.10;;;;;;5055643;28;20449;-47
2021/08/10 11:51:42;;;;;;;6.43;3.88;;;24.90;49.90;;;;;;5055927;28;20021;-51
2021/08/10 11:54:11;;;;;;;8.27;4.13;;;24.70;48.50;;;;;;5056374;28;20029;-50
2021/08/10 11:56:39;;;;;;;7.67;4.37;;;23.70;51.60;;;;;;5055716;28;20029;-51
2021/08/10 11:59:09;;;;;;;7.68;5.53;;;23.60;51.80;;;;;;5055308;28;20263;-51
2021/08/10 12:01:36;;;;;;;7.38;4.68;;;23.40;51.00;;;;;;5055073;28;20488;-50
2021/08/10 12:04:13;;;;;;;7.20;3.58;;;24.10;49.80;;;;;;5054844;28;20040;-47
2021/08/10 12:06:39;;;;;;;7.22;4.53;;;24.40;48.90;;;;;;5054126;28;20048;-48
2021/08/10 12:09:06;;;;;;;7.70;4.20;;;24.80;48.20;;;;;;5054690;28;20025;-48
2021/08/10 12:11:32;;;;;;;12.07;4.40;;;24.80;48.60;;;;;;5054642;28;20153;-48
2021/08/10 12:14:16;;;;;;;6.53;4.10;;;24.70;49.20;;;;;;5054382;28;20021;-49
2021/08/10 12:16:58;;;;;;;6.72;3.42;;;24.10;51.10;;;;;;5053540;28;20125;-53
2021/08/10 12:19:34;;;;;;;5.78;3.50;;;23.30;53.20;;;;;;5054655;28;20053;-48
2021/08/10 12:22:01;;;;;;;7.05;4.15;;;23.20;53.70;;;;;;5054158;28;20457;-49
2021/08/10 12:24:29;;;;;;;9.55;3.35;;;22.80;54.90;;;;;;5053001;28;20033;-48
2021/08/10 12:26:54;;;;;;;4.72;3.15;;;22.90;54.00;;;;;;5053301;28;20032;-48
2021/08/10 12:29:20;;;;;;;5.68;3.90;;;22.30;55.90;;;;;;5054263;28;20029;-50
2021/08/10 12:31:47;;;;;;;5.60;3.75;;;22.30;56.20;;;;;;5054013;28;20053;-49
2021/08/10 12:34:12;;;;;;;12.32;3.88;;;23.00;54.10;;;;;;5054445;28;20028;-48
2021/08/10 12:36:51;;;;;;;5.97;3.58;;;23.80;52.60;;;;;;5052912;28;20109;-48
2021/08/10 12:39:18;;;;;;;5.00;3.40;;;24.80;50.80;;;;;;5053790;28;20108;-50
2021/08/10 12:41:44;;;;;;;5.07;3.88;;;24.90;49.40;;;;;;5053789;28;20501;-50
2021/08/10 12:44:10;;;;;;;11.05;4.90;;;24.40;51.20;;;;;;5054210;28;20536;-50
2021/08/10 12:46:37;;;;;;;5.25;3.97;;;24.10;52.00;;;;;;5054083;28;20116;-47
2021/08/10 12:49:10;;;;;;;6.88;4.22;;;23.30;55.30;;;;;;5053744;28;20029;-47
2021/08/10 12:51:57;;;;;;;6.88;3.30;;;23.00;56.10;;;;;;5053652;28;20383;-51
2021/08/10 12:54:24;;;;;;;5.13;3.30;;;22.80;57.40;;;;;;5053900;28;20411;-48